Aeroporto :
LOGIN :

Iscrizione | Disclaimer

   EN    FR    IT 

 










Sommario :    VFR   VFR Marginale   IFR   IFR Intensivo   IFR Molto Intensivo
Visibilità : 
Base nubi : 
>= 8 km
>= 3000ft
5 / 8 km
1000 / 3000 ft
1500m / 5 km
500 / 1000 ft
800 / 1500m
200 / 500 ft
< 800m
< 200 ft
Simboli :   Temporali  Nebbia  Neve Forte  Precipitazioni Forti  Vento > 20 kt
SIGMETs :   Varie  Temporali  Ghiacco  Turbolenza  Onda orograficha  Ceneri Vulcaniche






- Altitudine del aeroporto : 257 ft
- Codice IATA : MAN


EGCC - Manchester

ULTIMO METAR :
  • 281920Z AUTO VRB03KT 9999 NCD 21/08 Q1030 NOSIG

METARs OBSOLETI :
  • 281850Z AUTO VRB03KT 9999 NCD 22/08 Q1030
  • 281820Z AUTO VRB03KT 9999 NCD 22/08 Q1030
  • 281750Z AUTO 19005KT 140V240 9999 NCD 23/09 Q1030
  • 281720Z AUTO 19004KT 140V230 9999 NCD 24/09 Q1030
  • 281650Z AUTO 21004KT 150V240 9999 NCD 23/09 Q1030

TAF TAF EGCC
Valido dal 28 a 18 ore il 30 a 00 ore UTC


281651Z 2818/2924 16006KT CAVOK
ATIS : +44 161 499 2324



MetMap, La meteo Aeronautica in un colpo d'occhio ! - Copyright ORBIFLY Dicembre 2007 - Disclaimer

ORBIFLY MET'MAP TEAM :

Programmazione e sviluppo : Alexandra Zaïnal
Concezione : Baudouin d'Aumeries
Aiuto per la programmazione : Marc-Olivier Méhu
Supporto tecnico e logistico : Manuel Goepfert
Aiuto per la traduzione : Arnaldo La Scala

Contatto : metmap@orbifly.com




FONTI E CREDITI :

   NOAA